sensor_id;sensor_type;location;lat;lon;timestamp;pressure;altitude;pressure_sealevel;temperature;humidity
76132;BME280;64877;50.994;13.650;2023-08-06T00:02:12;98822.41;;;16.88;100.00
76132;BME280;64877;50.994;13.650;2023-08-06T00:04:37;98812.03;;;16.83;100.00
76132;BME280;64877;50.994;13.650;2023-08-06T00:07:03;98814.75;;;16.83;100.00
76132;BME280;64877;50.994;13.650;2023-08-06T00:09:28;98808.00;;;16.71;100.00
76132;BME280;64877;50.994;13.650;2023-08-06T00:11:54;98796.22;;;16.70;100.00
76132;BME280;64877;50.994;13.650;2023-08-06T00:14:19;98796.22;;;16.78;100.00
76132;BME280;64877;50.994;13.650;2023-08-06T00:16:45;98794.88;;;16.74;100.00
76132;BME280;64877;50.994;13.650;2023-08-06T00:19:10;98791.47;;;16.72;100.00
76132;BME280;64877;50.994;13.650;2023-08-06T00:21:36;98785.00;;;16.65;100.00
76132;BME280;64877;50.994;13.650;2023-08-06T00:24:01;98784.09;;;16.81;100.00
76132;BME280;64877;50.994;13.650;2023-08-06T00:26:26;98789.06;;;16.77;100.00
76132;BME280;64877;50.994;13.650;2023-08-06T00:28:52;98788.69;;;16.80;100.00
76132;BME280;64877;50.994;13.650;2023-08-06T00:31:17;98790.75;;;16.78;100.00
76132;BME280;64877;50.994;13.650;2023-08-06T00:33:43;98787.06;;;16.63;100.00
76132;BME280;64877;50.994;13.650;2023-08-06T00:36:08;98784.66;;;16.68;100.00
76132;BME280;64877;50.994;13.650;2023-08-06T00:38:34;98781.13;;;16.60;100.00
76132;BME280;64877;50.994;13.650;2023-08-06T00:40:59;98787.06;;;16.63;100.00
76132;BME280;64877;50.994;13.650;2023-08-06T00:43:25;98785.19;;;16.72;100.00
76132;BME280;64877;50.994;13.650;2023-08-06T00:45:50;98778.50;;;16.74;100.00
76132;BME280;64877;50.994;13.650;2023-08-06T00:48:16;98767.97;;;16.71;100.00
76132;BME280;64877;50.994;13.650;2023-08-06T00:50:41;98763.88;;;16.67;100.00
76132;BME280;64877;50.994;13.650;2023-08-06T00:53:07;98753.38;;;16.56;100.00
76132;BME280;64877;50.994;13.650;2023-08-06T00:55:33;98755.63;;;16.52;100.00
76132;BME280;64877;50.994;13.650;2023-08-06T00:57:59;98748.63;;;16.50;100.00
76132;BME280;64877;50.994;13.650;2023-08-06T01:00:25;98749.00;;;16.47;100.00
76132;BME280;64877;50.994;13.650;2023-08-06T01:02:51;98748.28;;;16.53;100.00
76132;BME280;64877;50.994;13.650;2023-08-06T01:05:17;98751.53;;;16.48;100.00
76132;BME280;64877;50.994;13.650;2023-08-06T01:15:46;98748.25;;;16.61;100.00
76132;BME280;64877;50.994;13.650;2023-08-06T01:18:13;98750.47;;;16.58;100.00
76132;BME280;64877;50.994;13.650;2023-08-06T01:20:40;98756.22;;;16.63;100.00
76132;BME280;64877;50.994;13.650;2023-08-06T01:23:05;98750.59;;;16.64;100.00
76132;BME280;64877;50.994;13.650;2023-08-06T01:25:34;98750.59;;;16.64;100.00
76132;BME280;64877;50.994;13.650;2023-08-06T01:28:11;98748.16;;;16.69;100.00
76132;BME280;64877;50.994;13.650;2023-08-06T01:30:41;98733.75;;;16.61;100.00
76132;BME280;64877;50.994;13.650;2023-08-06T01:33:10;98727.09;;;16.63;100.00
76132;BME280;64877;50.994;13.650;2023-08-06T01:35:40;98726.75;;;16.66;100.00
76132;BME280;64877;50.994;13.650;2023-08-06T01:38:07;98725.69;;;16.67;100.00
76132;BME280;64877;50.994;13.650;2023-08-06T01:40:32;98717.88;;;16.64;100.00
76132;BME280;64877;50.994;13.650;2023-08-06T01:42:59;98718.72;;;16.65;100.00
76132;BME280;64877;50.994;13.650;2023-08-06T01:45:24;98710.38;;;16.66;100.00
76132;BME280;64877;50.994;13.650;2023-08-06T01:47:50;98702.34;;;16.65;100.00
76132;BME280;64877;50.994;13.650;2023-08-06T01:50:15;98704.44;;;16.63;100.00
76132;BME280;64877;50.994;13.650;2023-08-06T01:52:41;98703.59;;;16.62;100.00
76132;BME280;64877;50.994;13.650;2023-08-06T01:55:06;98706.22;;;16.70;100.00
76132;BME280;64877;50.994;13.650;2023-08-06T01:57:32;98710.84;;;16.70;100.00
76132;BME280;64877;50.994;13.650;2023-08-06T01:59:58;98711.38;;;16.73;100.00
76132;BME280;64877;50.994;13.650;2023-08-06T02:02:23;98710.00;;;16.69;100.00
76132;BME280;64877;50.994;13.650;2023-08-06T02:04:49;98712.22;;;16.74;100.00
76132;BME280;64877;50.994;13.650;2023-08-06T02:07:14;98705.25;;;16.71;100.00
76132;BME280;64877;50.994;13.650;2023-08-06T02:09:40;98708.84;;;16.64;100.00
76132;BME280;64877;50.994;13.650;2023-08-06T02:12:06;98710.25;;;16.60;100.00
76132;BME280;64877;50.994;13.650;2023-08-06T02:14:31;98715.47;;;16.46;100.00
76132;BME280;64877;50.994;13.650;2023-08-06T02:16:57;98710.94;;;16.62;100.00
76132;BME280;64877;50.994;13.650;2023-08-06T02:19:24;98715.34;;;16.63;100.00
76132;BME280;64877;50.994;13.650;2023-08-06T02:21:50;98703.28;;;16.57;100.00
76132;BME280;64877;50.994;13.650;2023-08-06T02:24:15;98714.13;;;16.65;100.00
76132;BME280;64877;50.994;13.650;2023-08-06T02:26:41;98707.69;;;16.58;100.00
76132;BME280;64877;50.994;13.650;2023-08-06T02:29:06;98708.19;;;16.62;100.00
76132;BME280;64877;50.994;13.650;2023-08-06T02:31:31;98702.84;;;16.68;100.00
76132;BME280;64877;50.994;13.650;2023-08-06T02:33:57;98706.22;;;16.70;100.00
76132;BME280;64877;50.994;13.650;2023-08-06T02:36:23;98701.53;;;16.64;100.00
76132;BME280;64877;50.994;13.650;2023-08-06T02:38:49;98701.22;;;16.59;100.00
76132;BME280;64877;50.994;13.650;2023-08-06T02:41:15;98697.69;;;16.50;100.00
76132;BME280;64877;50.994;13.650;2023-08-06T02:43:41;98693.53;;;16.63;100.00
76132;BME280;64877;50.994;13.650;2023-08-06T02:46:06;98687.78;;;16.58;100.00
76132;BME280;64877;50.994;13.650;2023-08-06T02:48:32;98688.44;;;16.60;100.00
76132;BME280;64877;50.994;13.650;2023-08-06T02:50:59;98687.88;;;16.64;100.00
76132;BME280;64877;50.994;13.650;2023-08-06T02:53:25;98690.50;;;16.58;100.00
76132;BME280;64877;50.994;13.650;2023-08-06T02:55:51;98686.09;;;16.57;100.00
76132;BME280;64877;50.994;13.650;2023-08-06T02:58:21;98686.47;;;16.45;100.00
76132;BME280;64877;50.994;13.650;2023-08-06T03:01:04;98675.34;;;16.55;100.00
76132;BME280;64877;50.994;13.650;2023-08-06T03:03:35;98674.25;;;16.64;100.00
76132;BME280;64877;50.994;13.650;2023-08-06T03:06:03;98668.06;;;16.70;100.00
76132;BME280;64877;50.994;13.650;2023-08-06T03:08:38;98664.38;;;16.63;100.00
76132;BME280;64877;50.994;13.650;2023-08-06T03:11:04;98649.91;;;16.63;100.00
76132;BME280;64877;50.994;13.650;2023-08-06T03:13:30;98655.66;;;16.68;100.00
76132;BME280;64877;50.994;13.650;2023-08-06T03:15:58;98657.25;;;16.62;100.00
76132;BME280;64877;50.994;13.650;2023-08-06T03:18:25;98645.94;;;16.65;100.00
76132;BME280;64877;50.994;13.650;2023-08-06T03:20:51;98639.66;;;16.65;100.00
76132;BME280;64877;50.994;13.650;2023-08-06T03:23:17;98648.22;;;16.62;100.00
76132;BME280;64877;50.994;13.650;2023-08-06T03:25:44;98646.03;;;16.57;100.00
76132;BME280;64877;50.994;13.650;2023-08-06T03:28:11;98638.66;;;16.43;100.00
76132;BME280;64877;50.994;13.650;2023-08-06T03:30:38;98633.81;;;16.53;100.00
76132;BME280;64877;50.994;13.650;2023-08-06T03:33:08;98636.34;;;16.54;100.00
76132;BME280;64877;50.994;13.650;2023-08-06T03:35:33;98632.47;;;16.49;100.00
76132;BME280;64877;50.994;13.650;2023-08-06T03:37:59;98625.22;;;16.41;100.00
76132;BME280;64877;50.994;13.650;2023-08-06T03:40:26;98630.34;;;16.36;100.00
76132;BME280;64877;50.994;13.650;2023-08-06T03:42:52;98620.53;;;16.50;100.00
76132;BME280;64877;50.994;13.650;2023-08-06T03:45:17;98619.91;;;16.40;100.00
76132;BME280;64877;50.994;13.650;2023-08-06T03:47:43;98617.78;;;16.50;100.00
76132;BME280;64877;50.994;13.650;2023-08-06T03:50:09;98616.09;;;16.49;100.00
76132;BME280;64877;50.994;13.650;2023-08-06T03:52:34;98612.44;;;16.42;100.00
76132;BME280;64877;50.994;13.650;2023-08-06T03:55:00;98612.66;;;16.55;100.00
76132;BME280;64877;50.994;13.650;2023-08-06T03:57:25;98604.84;;;16.52;100.00
76132;BME280;64877;50.994;13.650;2023-08-06T03:59:51;98599.75;;;16.49;100.00
76132;BME280;64877;50.994;13.650;2023-08-06T04:02:16;98595.16;;;16.49;100.00
76132;BME280;64877;50.994;13.650;2023-08-06T04:04:42;98595.34;;;16.48;100.00
76132;BME280;64877;50.994;13.650;2023-08-06T04:07:07;98592.97;;;16.45;100.00
76132;BME280;64877;50.994;13.650;2023-08-06T04:09:33;98588.19;;;16.47;100.00
76132;BME280;64877;50.994;13.650;2023-08-06T04:11:58;98587.25;;;16.54;100.00
76132;BME280;64877;50.994;13.650;2023-08-06T04:14:26;98583.47;;;16.41;100.00
76132;BME280;64877;50.994;13.650;2023-08-06T04:16:52;98577.84;;;16.42;100.00
76132;BME280;64877;50.994;13.650;2023-08-06T04:19:17;98584.50;;;16.40;100.00
76132;BME280;64877;50.994;13.650;2023-08-06T04:21:43;98574.44;;;16.40;100.00
76132;BME280;64877;50.994;13.650;2023-08-06T04:24:10;98575.78;;;16.44;100.00
76132;BME280;64877;50.994;13.650;2023-08-06T04:26:35;98569.84;;;16.41;100.00
76132;BME280;64877;50.994;13.650;2023-08-06T04:29:01;98566.81;;;16.36;100.00
76132;BME280;64877;50.994;13.650;2023-08-06T04:31:28;98570.13;;;16.46;100.00
76132;BME280;64877;50.994;13.650;2023-08-06T04:33:54;98559.41;;;16.44;100.00
76132;BME280;64877;50.994;13.650;2023-08-06T04:36:19;98554.94;;;16.51;100.00
76132;BME280;64877;50.994;13.650;2023-08-06T04:38:45;98549.50;;;16.51;100.00
76132;BME280;64877;50.994;13.650;2023-08-06T04:41:14;98552.59;;;16.63;100.00
76132;BME280;64877;50.994;13.650;2023-08-06T04:43:39;98549.59;;;16.58;100.00
76132;BME280;64877;50.994;13.650;2023-08-06T04:46:05;98552.31;;;16.58;100.00
76132;BME280;64877;50.994;13.650;2023-08-06T04:48:30;98549.50;;;16.51;100.00
76132;BME280;64877;50.994;13.650;2023-08-06T04:50:56;98542.31;;;16.50;100.00
76132;BME280;64877;50.994;13.650;2023-08-06T04:53:21;98552.78;;;16.47;100.00
76132;BME280;64877;50.994;13.650;2023-08-06T04:55:47;98544.69;;;16.53;100.00
76132;BME280;64877;50.994;13.650;2023-08-06T04:58:13;98546.94;;;16.50;100.00
76132;BME280;64877;50.994;13.650;2023-08-06T05:00:39;98543.38;;;16.64;100.00
76132;BME280;64877;50.994;13.650;2023-08-06T05:03:05;98534.94;;;16.59;100.00
76132;BME280;64877;50.994;13.650;2023-08-06T05:05:30;98544.88;;;16.52;100.00
76132;BME280;64877;50.994;13.650;2023-08-06T05:07:57;98531.66;;;16.64;100.00
76132;BME280;64877;50.994;13.650;2023-08-06T05:10:24;98544.06;;;16.66;100.00
76132;BME280;64877;50.994;13.650;2023-08-06T05:12:50;98537.94;;;16.64;100.00
76132;BME280;64877;50.994;13.650;2023-08-06T05:15:16;98537.84;;;16.58;100.00
76132;BME280;64877;50.994;13.650;2023-08-06T05:17:41;98529.84;;;16.56;100.00
76132;BME280;64877;50.994;13.650;2023-08-06T05:20:07;98536.88;;;16.50;100.00
76132;BME280;64877;50.994;13.650;2023-08-06T05:22:32;98535.31;;;16.56;100.00
76132;BME280;64877;50.994;13.650;2023-08-06T05:24:58;98531.06;;;16.53;100.00
76132;BME280;64877;50.994;13.650;2023-08-06T05:27:23;98531.66;;;16.64;100.00
76132;BME280;64877;50.994;13.650;2023-08-06T05:29:48;98533.81;;;16.68;100.00
76132;BME280;64877;50.994;13.650;2023-08-06T05:32:14;98524.91;;;16.74;100.00
76132;BME280;64877;50.994;13.650;2023-08-06T05:34:39;98523.28;;;16.65;100.00
76132;BME280;64877;50.994;13.650;2023-08-06T05:37:06;98524.13;;;16.66;100.00
76132;BME280;64877;50.994;13.650;2023-08-06T05:39:32;98517.78;;;16.73;100.00
76132;BME280;64877;50.994;13.650;2023-08-06T05:41:57;98514.97;;;16.82;100.00
76132;BME280;64877;50.994;13.650;2023-08-06T05:44:23;98512.00;;;16.68;100.00
76132;BME280;64877;50.994;13.650;2023-08-06T05:46:49;98509.84;;;16.64;100.00
76132;BME280;64877;50.994;13.650;2023-08-06T05:49:14;98505.63;;;16.61;100.00
76132;BME280;64877;50.994;13.650;2023-08-06T05:51:41;98509.28;;;16.68;100.00
76132;BME280;64877;50.994;13.650;2023-08-06T05:54:07;98514.09;;;16.66;100.00
76132;BME280;64877;50.994;13.650;2023-08-06T05:56:32;98511.75;;;16.78;100.00
76132;BME280;64877;50.994;13.650;2023-08-06T05:58:58;98524.16;;;16.80;100.00
76132;BME280;64877;50.994;13.650;2023-08-06T06:01:23;98510.91;;;16.77;100.00
76132;BME280;64877;50.994;13.650;2023-08-06T06:03:48;98512.59;;;16.78;100.00
76132;BME280;64877;50.994;13.650;2023-08-06T06:06:14;98511.13;;;16.91;100.00
76132;BME280;64877;50.994;13.650;2023-08-06T06:08:40;98510.53;;;16.95;100.00
76132;BME280;64877;50.994;13.650;2023-08-06T06:11:05;98508.84;;;16.79;100.00
76132;BME280;64877;50.994;13.650;2023-08-06T06:13:31;98510.38;;;16.82;100.00
76132;BME280;64877;50.994;13.650;2023-08-06T06:15:56;98510.25;;;17.05;100.00
76132;BME280;64877;50.994;13.650;2023-08-06T06:18:22;98506.50;;;17.06;100.00
76132;BME280;64877;50.994;13.650;2023-08-06T06:20:47;98513.84;;;16.91;100.00
76132;BME280;64877;50.994;13.650;2023-08-06T06:23:13;98514.56;;;17.14;100.00
76132;BME280;64877;50.994;13.650;2023-08-06T06:25:57;98506.38;;;17.14;100.00
76132;BME280;64877;50.994;13.650;2023-08-06T06:28:22;98505.63;;;17.20;100.00
76132;BME280;64877;50.994;13.650;2023-08-06T06:30:48;98503.50;;;17.16;100.00
76132;BME280;64877;50.994;13.650;2023-08-06T06:33:13;98505.25;;;17.23;100.00
76132;BME280;64877;50.994;13.650;2023-08-06T06:35:39;98501.88;;;17.21;100.00
76132;BME280;64877;50.994;13.650;2023-08-06T06:38:04;98506.09;;;17.24;100.00
76132;BME280;64877;50.994;13.650;2023-08-06T06:40:30;98512.09;;;17.34;100.00
76132;BME280;64877;50.994;13.650;2023-08-06T06:42:55;98497.13;;;17.45;100.00
76132;BME280;64877;50.994;13.650;2023-08-06T06:45:21;98502.78;;;17.43;100.00
76132;BME280;64877;50.994;13.650;2023-08-06T06:47:46;98506.75;;;17.41;100.00
76132;BME280;64877;50.994;13.650;2023-08-06T06:50:12;98509.28;;;17.42;100.00
76132;BME280;64877;50.994;13.650;2023-08-06T06:52:37;98513.78;;;17.35;100.00
76132;BME280;64877;50.994;13.650;2023-08-06T06:55:03;98515.09;;;17.39;100.00
76132;BME280;64877;50.994;13.650;2023-08-06T06:57:29;98511.09;;;17.20;100.00
76132;BME280;64877;50.994;13.650;2023-08-06T06:59:54;98515.03;;;17.33;100.00
76132;BME280;64877;50.994;13.650;2023-08-06T07:02:19;98520.22;;;17.27;100.00
76132;BME280;64877;50.994;13.650;2023-08-06T07:04:45;98522.09;;;17.42;100.00
76132;BME280;64877;50.994;13.650;2023-08-06T07:07:10;98521.81;;;17.37;100.00
76132;BME280;64877;50.994;13.650;2023-08-06T07:09:36;98520.88;;;17.29;100.00
76132;BME280;64877;50.994;13.650;2023-08-06T07:12:01;98522.44;;;17.39;100.00
76132;BME280;64877;50.994;13.650;2023-08-06T07:14:28;98523.13;;;17.41;100.00
76132;BME280;64877;50.994;13.650;2023-08-06T07:16:54;98524.81;;;17.42;100.00
76132;BME280;64877;50.994;13.650;2023-08-06T07:19:19;98526.22;;;17.38;100.00
76132;BME280;64877;50.994;13.650;2023-08-06T07:21:45;98525.34;;;17.52;100.00
76132;BME280;64877;50.994;13.650;2023-08-06T07:24:11;98527.25;;;17.51;100.00
76132;BME280;64877;50.994;13.650;2023-08-06T07:26:37;98520.72;;;17.67;100.00
76132;BME280;64877;50.994;13.650;2023-08-06T07:29:02;98522.50;;;17.60;100.00
76132;BME280;64877;50.994;13.650;2023-08-06T07:31:28;98523.38;;;17.61;100.00
76132;BME280;64877;50.994;13.650;2023-08-06T07:33:53;98518.63;;;17.69;100.00
76132;BME280;64877;50.994;13.650;2023-08-06T07:36:19;98516.84;;;17.76;100.00
76132;BME280;64877;50.994;13.650;2023-08-06T07:38:44;98520.63;;;17.75;100.00
76132;BME280;64877;50.994;13.650;2023-08-06T07:41:10;98525.19;;;17.39;100.00
76132;BME280;64877;50.994;13.650;2023-08-06T07:43:35;98513.13;;;17.48;100.00
76132;BME280;64877;50.994;13.650;2023-08-06T07:46:01;98502.63;;;17.81;100.00
76132;BME280;64877;50.994;13.650;2023-08-06T07:48:28;98509.25;;;17.93;100.00
76132;BME280;64877;50.994;13.650;2023-08-06T07:50:54;98506.19;;;18.03;100.00
76132;BME280;64877;50.994;13.650;2023-08-06T07:53:24;98497.47;;;18.14;100.00
76132;BME280;64877;50.994;13.650;2023-08-06T07:55:53;98508.53;;;18.27;100.00
76132;BME280;64877;50.994;13.650;2023-08-06T07:58:19;98512.03;;;18.43;100.00
76132;BME280;64877;50.994;13.650;2023-08-06T08:00:45;98510.53;;;18.40;100.00
76132;BME280;64877;50.994;13.650;2023-08-06T08:03:15;98510.97;;;18.44;100.00
76132;BME280;64877;50.994;13.650;2023-08-06T08:05:41;98510.03;;;18.30;100.00
76132;BME280;64877;50.994;13.650;2023-08-06T08:08:07;98501.03;;;18.36;100.00
76132;BME280;64877;50.994;13.650;2023-08-06T08:10:33;98505.19;;;18.32;100.00
76132;BME280;64877;50.994;13.650;2023-08-06T08:13:00;98494.66;;;18.29;100.00
76132;BME280;64877;50.994;13.650;2023-08-06T08:15:28;98495.84;;;18.20;100.00
76132;BME280;64877;50.994;13.650;2023-08-06T08:17:54;98496.28;;;18.23;100.00
76132;BME280;64877;50.994;13.650;2023-08-06T08:20:20;98495.06;;;18.26;100.00
76132;BME280;64877;50.994;13.650;2023-08-06T08:22:45;98491.50;;;18.25;100.00
76132;BME280;64877;50.994;13.650;2023-08-06T08:25:11;98489.38;;;18.27;100.00
76132;BME280;64877;50.994;13.650;2023-08-06T08:27:36;98486.78;;;18.19;100.00
76132;BME280;64877;50.994;13.650;2023-08-06T08:30:02;98476.19;;;18.31;100.00
76132;BME280;64877;50.994;13.650;2023-08-06T08:32:28;98468.28;;;18.43;100.00
76132;BME280;64877;50.994;13.650;2023-08-06T08:34:53;98470.28;;;18.55;100.00
76132;BME280;64877;50.994;13.650;2023-08-06T08:37:19;98469.84;;;18.58;100.00
76132;BME280;64877;50.994;13.650;2023-08-06T08:39:44;98468.66;;;18.68;99.39
76132;BME280;64877;50.994;13.650;2023-08-06T08:42:10;98468.41;;;18.63;98.11
76132;BME280;64877;50.994;13.650;2023-08-06T08:44:36;98466.00;;;18.74;96.65
76132;BME280;64877;50.994;13.650;2023-08-06T08:47:07;98468.09;;;18.72;99.21
76132;BME280;64877;50.994;13.650;2023-08-06T08:49:37;98459.69;;;18.74;100.00
76132;BME280;64877;50.994;13.650;2023-08-06T08:52:03;98463.72;;;18.84;100.00
76132;BME280;64877;50.994;13.650;2023-08-06T08:54:33;98457.25;;;18.85;100.00
76132;BME280;64877;50.994;13.650;2023-08-06T08:56:59;98455.81;;;18.96;98.46
76132;BME280;64877;50.994;13.650;2023-08-06T08:59:24;98455.16;;;18.94;100.00
76132;BME280;64877;50.994;13.650;2023-08-06T09:01:51;98443.22;;;19.02;98.83
76132;BME280;64877;50.994;13.650;2023-08-06T09:04:20;98451.44;;;19.08;99.57
76132;BME280;64877;50.994;13.650;2023-08-06T09:06:50;98450.16;;;19.04;100.00
76132;BME280;64877;50.994;13.650;2023-08-06T09:09:22;98443.28;;;19.15;99.37
76132;BME280;64877;50.994;13.650;2023-08-06T09:11:51;98449.75;;;19.07;99.94
76132;BME280;64877;50.994;13.650;2023-08-06T09:14:16;98451.28;;;19.10;98.91
76132;BME280;64877;50.994;13.650;2023-08-06T09:16:43;98452.72;;;19.06;100.00
76132;BME280;64877;50.994;13.650;2023-08-06T09:19:09;98441.38;;;19.16;98.99
76132;BME280;64877;50.994;13.650;2023-08-06T09:21:41;98451.91;;;19.12;99.95
76132;BME280;64877;50.994;13.650;2023-08-06T09:24:16;98455.91;;;19.09;100.00
76132;BME280;64877;50.994;13.650;2023-08-06T09:26:44;98450.44;;;19.09;100.00
76132;BME280;64877;50.994;13.650;2023-08-06T09:29:10;98453.47;;;18.93;100.00
76132;BME280;64877;50.994;13.650;2023-08-06T09:31:48;98445.94;;;18.95;100.00
76132;BME280;64877;50.994;13.650;2023-08-06T09:34:23;98449.75;;;19.01;99.25
76132;BME280;64877;50.994;13.650;2023-08-06T09:36:49;98452.44;;;18.94;98.13
76132;BME280;64877;50.994;13.650;2023-08-06T09:39:21;98454.75;;;18.91;98.99
76132;BME280;64877;50.994;13.650;2023-08-06T09:41:48;98445.72;;;18.97;100.00
76132;BME280;64877;50.994;13.650;2023-08-06T09:44:18;98453.34;;;19.08;100.00
76132;BME280;64877;50.994;13.650;2023-08-06T09:46:48;98439.88;;;19.13;100.00
76132;BME280;64877;50.994;13.650;2023-08-06T09:49:13;98443.06;;;19.17;100.00
76132;BME280;64877;50.994;13.650;2023-08-06T09:51:39;98443.53;;;19.20;99.47
76132;BME280;64877;50.994;13.650;2023-08-06T09:54:06;98437.63;;;19.23;97.47
76132;BME280;64877;50.994;13.650;2023-08-06T09:56:34;98436.78;;;19.23;99.56
76132;BME280;64877;50.994;13.650;2023-08-06T09:59:04;98426.72;;;19.30;98.46
76132;BME280;64877;50.994;13.650;2023-08-06T10:01:33;98422.88;;;19.24;98.04
76132;BME280;64877;50.994;13.650;2023-08-06T10:03:59;98417.22;;;19.32;98.95
76132;BME280;64877;50.994;13.650;2023-08-06T10:06:26;98423.75;;;19.25;100.00
76132;BME280;64877;50.994;13.650;2023-08-06T10:08:53;98415.59;;;19.45;99.74
76132;BME280;64877;50.994;13.650;2023-08-06T10:11:21;98412.50;;;19.61;94.53
76132;BME280;64877;50.994;13.650;2023-08-06T10:13:48;98414.22;;;19.75;91.01
76132;BME280;64877;50.994;13.650;2023-08-06T10:16:15;98410.63;;;19.81;90.13
76132;BME280;64877;50.994;13.650;2023-08-06T10:18:41;98407.91;;;19.95;90.60
76132;BME280;64877;50.994;13.650;2023-08-06T10:21:08;98404.94;;;19.96;92.24
76132;BME280;64877;50.994;13.650;2023-08-06T10:23:36;98403.69;;;20.12;90.39
76132;BME280;64877;50.994;13.650;2023-08-06T10:26:03;98402.19;;;20.16;90.61
76132;BME280;64877;50.994;13.650;2023-08-06T10:28:39;98406.63;;;20.17;90.77
76132;BME280;64877;50.994;13.650;2023-08-06T10:31:05;98399.88;;;20.26;88.70
76132;BME280;64877;50.994;13.650;2023-08-06T10:33:44;98387.19;;;20.45;85.29
76132;BME280;64877;50.994;13.650;2023-08-06T10:36:10;98388.88;;;20.53;87.33
76132;BME280;64877;50.994;13.650;2023-08-06T10:38:47;98386.53;;;20.70;83.86
76132;BME280;64877;50.994;13.650;2023-08-06T10:41:23;98379.75;;;20.72;82.51
76132;BME280;64877;50.994;13.650;2023-08-06T10:43:52;98370.66;;;20.78;83.87
76132;BME280;64877;50.994;13.650;2023-08-06T10:46:30;98372.56;;;20.78;80.78
76132;BME280;64877;50.994;13.650;2023-08-06T10:48:55;98362.63;;;20.83;81.25
76132;BME280;64877;50.994;13.650;2023-08-06T10:51:21;98360.91;;;20.96;79.92
76132;BME280;64877;50.994;13.650;2023-08-06T10:53:48;98359.69;;;20.85;80.12
76132;BME280;64877;50.994;13.650;2023-08-06T10:56:18;98360.50;;;20.85;78.95
76132;BME280;64877;50.994;13.650;2023-08-06T10:58:47;98357.53;;;20.94;79.02
76132;BME280;64877;50.994;13.650;2023-08-06T11:01:13;98358.81;;;20.91;79.80
76132;BME280;64877;50.994;13.650;2023-08-06T11:03:39;98348.69;;;20.85;79.48
76132;BME280;64877;50.994;13.650;2023-08-06T11:06:08;98346.75;;;20.99;78.96
76132;BME280;64877;50.994;13.650;2023-08-06T11:08:35;98344.63;;;21.01;78.57
76132;BME280;64877;50.994;13.650;2023-08-06T11:11:10;98341.72;;;20.89;79.35
76132;BME280;64877;50.994;13.650;2023-08-06T11:13:38;98338.59;;;20.79;80.39
76132;BME280;64877;50.994;13.650;2023-08-06T11:16:05;98342.84;;;21.13;80.16
76132;BME280;64877;50.994;13.650;2023-08-06T11:18:31;98343.50;;;21.08;78.09
76132;BME280;64877;50.994;13.650;2023-08-06T11:21:00;98349.03;;;21.02;78.13
76132;BME280;64877;50.994;13.650;2023-08-06T11:23:27;98340.09;;;21.13;78.04
76132;BME280;64877;50.994;13.650;2023-08-06T11:25:54;98331.03;;;21.12;77.74
76132;BME280;64877;50.994;13.650;2023-08-06T11:28:21;98333.78;;;21.12;77.69
76132;BME280;64877;50.994;13.650;2023-08-06T11:30:50;98334.47;;;21.01;77.01
76132;BME280;64877;50.994;13.650;2023-08-06T11:33:24;98333.03;;;20.99;78.35
76132;BME280;64877;50.994;13.650;2023-08-06T11:35:58;98337.69;;;20.91;79.51
76132;BME280;64877;50.994;13.650;2023-08-06T11:38:28;98330.75;;;20.89;77.60
76132;BME280;64877;50.994;13.650;2023-08-06T11:40:54;98328.38;;;20.92;77.25
76132;BME280;64877;50.994;13.650;2023-08-06T11:43:20;98329.63;;;20.97;78.57
76132;BME280;64877;50.994;13.650;2023-08-06T11:45:48;98328.41;;;20.86;79.26
76132;BME280;64877;50.994;13.650;2023-08-06T11:48:14;98332.94;;;21.12;78.13
76132;BME280;64877;50.994;13.650;2023-08-06T11:50:40;98331.13;;;20.92;79.03
76132;BME280;64877;50.994;13.650;2023-08-06T11:53:06;98322.50;;;20.89;79.60
76132;BME280;64877;50.994;13.650;2023-08-06T11:55:31;98335.16;;;20.83;81.33
76132;BME280;64877;50.994;13.650;2023-08-06T11:57:57;98329.31;;;20.80;79.58
76132;BME280;64877;50.994;13.650;2023-08-06T12:00:24;98337.34;;;20.68;81.29
76132;BME280;64877;50.994;13.650;2023-08-06T12:02:50;98339.47;;;20.66;79.93
76132;BME280;64877;50.994;13.650;2023-08-06T12:05:18;98331.03;;;20.68;79.83
76132;BME280;64877;50.994;13.650;2023-08-06T12:07:54;98324.94;;;20.46;81.07
76132;BME280;64877;50.994;13.650;2023-08-06T12:10:22;98328.94;;;20.56;82.77
76132;BME280;64877;50.994;13.650;2023-08-06T12:12:47;98318.13;;;20.68;81.29
76132;BME280;64877;50.994;13.650;2023-08-06T12:15:13;98314.03;;;20.90;79.55
76132;BME280;64877;50.994;13.650;2023-08-06T12:17:39;98320.34;;;20.98;77.50
76132;BME280;64877;50.994;13.650;2023-08-06T12:20:06;98319.44;;;21.10;77.64
76132;BME280;64877;50.994;13.650;2023-08-06T12:22:32;98314.78;;;21.11;75.96
76132;BME280;64877;50.994;13.650;2023-08-06T12:25:04;98312.56;;;21.26;77.02
76132;BME280;64877;50.994;13.650;2023-08-06T12:27:35;98310.84;;;21.38;75.38
76132;BME280;64877;50.994;13.650;2023-08-06T12:30:04;98312.91;;;21.43;76.05
76132;BME280;64877;50.994;13.650;2023-08-06T12:32:31;98315.34;;;21.58;74.42
76132;BME280;64877;50.994;13.650;2023-08-06T12:34:56;98306.47;;;21.56;72.47
76132;BME280;64877;50.994;13.650;2023-08-06T12:37:25;98309.91;;;21.51;73.29
76132;BME280;64877;50.994;13.650;2023-08-06T12:39:53;98304.63;;;21.50;72.99
76132;BME280;64877;50.994;13.650;2023-08-06T12:42:19;98304.81;;;21.55;71.43
76132;BME280;64877;50.994;13.650;2023-08-06T12:44:44;98310.19;;;21.68;70.15
76132;BME280;64877;50.994;13.650;2023-08-06T12:47:10;98294.16;;;21.65;69.62
76132;BME280;64877;50.994;13.650;2023-08-06T12:49:35;98293.91;;;21.66;67.87